Time;durP1;ratioP1;P1;durP2;ratioP2;P2;SDS_P1;SDS_P2;PMS_P1;PMS_P2;Temp;Humidity;BMP_temperature;BMP_pressure;BME280_temperature;BME280_humidity;BME280_pressure;Samples;Min_cycle;Max_cycle;Signal;HPM_P1;HPM_P2
2021/10/19 00:00:09;;;;;;;25.23;13.48;;;;;;;4.81;100.00;99585.22;5013705;28;20057;-69
2021/10/19 00:02:35;;;;;;;22.00;11.43;;;;;;;4.90;100.00;99575.44;5014783;28;20045;-69
2021/10/19 00:05:01;;;;;;;17.67;10.20;;;;;;;4.80;100.00;99587.06;5015259;28;20038;-69
2021/10/19 00:07:27;;;;;;;17.77;10.13;;;;;;;4.63;100.00;99574.41;5014589;28;20082;-68
2021/10/19 00:09:52;;;;;;;17.08;9.65;;;;;;;4.58;100.00;99580.25;5014496;28;20018;-68
2021/10/19 00:12:17;;;;;;;18.52;10.82;;;;;;;4.42;100.00;99574.63;5011938;28;20014;-68
2021/10/19 00:14:42;;;;;;;21.75;10.57;;;;;;;4.30;100.00;99576.63;5028766;28;20023;-68
2021/10/19 00:17:08;;;;;;;16.80;10.15;;;;;;;4.17;100.00;99581.44;5017492;28;20034;-68
2021/10/19 00:19:34;;;;;;;20.27;10.80;;;;;;;4.09;100.00;99584.00;5006193;28;20035;-68
2021/10/19 00:21:59;;;;;;;23.15;11.00;;;;;;;4.05;100.00;99580.75;4985262;28;20019;-68
2021/10/19 00:24:24;;;;;;;22.63;11.38;;;;;;;4.15;100.00;99578.91;4977142;28;20027;-68
2021/10/19 00:26:50;;;;;;;26.17;11.85;;;;;;;4.35;100.00;99584.25;4976438;28;20065;-69
2021/10/19 00:29:15;;;;;;;30.70;13.35;;;;;;;4.66;100.00;99563.41;4994818;28;20038;-68
2021/10/19 00:31:40;;;;;;;30.73;14.02;;;;;;;4.86;100.00;99561.50;4992615;28;20557;-68
2021/10/19 00:34:06;;;;;;;25.50;12.05;;;;;;;4.79;100.00;99565.75;4994648;28;20030;-68
2021/10/19 00:36:31;;;;;;;20.83;11.65;;;;;;;4.57;100.00;99549.06;4995935;28;20022;-69
2021/10/19 00:38:56;;;;;;;20.70;11.60;;;;;;;4.54;100.00;99556.56;4994804;28;20037;-68
2021/10/19 00:41:22;;;;;;;27.80;12.20;;;;;;;4.50;100.00;99563.19;4995014;28;20032;-68
2021/10/19 00:43:49;;;;;;;21.45;11.05;;;;;;;4.38;100.00;99567.88;4994636;28;20042;-68
2021/10/19 00:46:14;;;;;;;19.48;10.73;;;;;;;4.22;100.00;99563.13;4995167;28;20395;-68
2021/10/19 00:48:42;;;;;;;23.10;10.90;;;;;;;4.22;100.00;99583.69;4995241;28;20026;-69
2021/10/19 00:51:10;;;;;;;20.63;11.63;;;;;;;4.17;100.00;99574.25;5017567;28;20018;-68
2021/10/19 00:53:35;;;;;;;24.98;11.77;;;;;;;4.44;100.00;99571.81;5007960;28;20054;-68
2021/10/19 00:56:01;;;;;;;20.90;11.35;;;;;;;4.35;100.00;99554.78;5009575;28;20026;-69
2021/10/19 00:58:26;;;;;;;25.13;11.80;;;;;;;4.29;100.00;99552.66;5017698;28;20059;-69
2021/10/19 01:00:51;;;;;;;22.23;11.60;;;;;;;4.33;100.00;99559.44;5018211;28;20022;-68
2021/10/19 01:03:16;;;;;;;21.65;11.32;;;;;;;4.33;100.00;99552.22;5017191;28;20038;-68
2021/10/19 01:05:42;;;;;;;21.80;11.63;;;;;;;4.38;100.00;99538.41;5007890;28;20061;-69
2021/10/19 01:08:10;;;;;;;24.90;11.98;;;;;;;4.37;100.00;99544.75;4990334;28;20487;-68
2021/10/19 01:10:36;;;;;;;22.77;11.85;;;;;;;4.48;100.00;99552.63;4995338;28;20022;-69
2021/10/19 01:13:02;;;;;;;25.70;12.98;;;;;;;4.69;100.00;99543.50;4994484;28;20396;-68
2021/10/19 01:15:31;;;;;;;19.40;10.18;;;;;;;4.71;100.00;99539.69;5003542;28;20022;-68
2021/10/19 01:17:56;;;;;;;19.33;10.35;;;;;;;4.63;100.00;99538.75;4983144;28;20105;-69
2021/10/19 01:20:24;;;;;;;18.65;9.80;;;;;;;4.49;100.00;99546.25;4975569;28;20520;-68
2021/10/19 01:22:50;;;;;;;23.65;9.77;;;;;;;4.41;100.00;99550.66;4975472;28;20365;-68
2021/10/19 01:25:18;;;;;;;19.77;10.93;;;;;;;4.37;100.00;99560.81;4983702;28;20034;-68
2021/10/19 01:27:47;;;;;;;16.80;8.95;;;;;;;4.29;100.00;99549.97;4992576;28;20040;-68
2021/10/19 01:30:13;;;;;;;20.85;10.00;;;;;;;4.22;100.00;99563.13;4993253;28;20470;-68
2021/10/19 01:32:38;;;;;;;22.42;11.60;;;;;;;4.25;100.00;99556.63;4992295;28;20029;-68
2021/10/19 01:35:05;;;;;;;22.58;11.95;;;;;;;4.44;100.00;99540.50;4992445;28;20032;-68
2021/10/19 01:37:30;;;;;;;20.88;10.57;;;;;;;4.55;100.00;99529.59;4991602;28;20049;-68
2021/10/19 01:39:55;;;;;;;21.63;11.00;;;;;;;4.61;100.00;99546.91;4988533;28;20483;-68
2021/10/19 01:42:21;;;;;;;19.50;10.07;;;;;;;4.59;100.00;99539.03;4993938;28;20102;-68
2021/10/19 01:44:46;;;;;;;18.00;10.15;;;;;;;4.68;100.00;99553.38;5009254;28;20022;-68
2021/10/19 01:47:11;;;;;;;22.85;10.68;;;;;;;4.66;100.00;99562.56;4993900;28;20435;-68
2021/10/19 01:49:36;;;;;;;22.20;10.73;;;;;;;4.47;100.00;99545.56;4975409;28;20035;-68
2021/10/19 01:52:02;;;;;;;19.77;10.13;;;;;;;4.57;100.00;99556.25;4977165;28;20038;-68
2021/10/19 01:54:27;;;;;;;23.17;11.68;;;;;;;4.48;100.00;99541.91;4993463;28;20030;-68
2021/10/19 01:56:53;;;;;;;19.25;10.55;;;;;;;4.52;100.00;99554.00;4993935;28;20084;-68
2021/10/19 01:59:18;;;;;;;21.45;10.82;;;;;;;4.74;100.00;99552.81;4993991;28;20048;-68
2021/10/19 02:01:43;;;;;;;19.20;10.45;;;;;;;5.03;100.00;99549.97;4994104;28;20030;-68
2021/10/19 02:04:08;;;;;;;20.95;10.63;;;;;;;5.10;100.00;99539.50;4992176;28;20018;-68
2021/10/19 02:06:34;;;;;;;21.95;11.02;;;;;;;5.28;100.00;99540.34;4986813;28;20026;-68
2021/10/19 02:08:59;;;;;;;20.77;11.40;;;;;;;5.19;100.00;99527.88;4974435;28;20029;-68
2021/10/19 02:11:24;;;;;;;21.52;10.35;;;;;;;5.11;100.00;99519.72;4977628;28;20018;-68
2021/10/19 02:13:49;;;;;;;17.65;9.52;;;;;;;5.07;100.00;99521.03;4993848;28;20391;-68
2021/10/19 02:16:15;;;;;;;20.35;10.85;;;;;;;5.10;100.00;99533.28;4988194;28;20030;-68
2021/10/19 02:18:40;;;;;;;20.58;10.27;;;;;;;5.01;100.00;99527.84;4993384;28;20022;-68
2021/10/19 02:21:05;;;;;;;18.48;9.27;;;;;;;4.92;100.00;99520.66;4993646;28;20097;-68
2021/10/19 02:23:30;;;;;;;21.73;11.30;;;;;;;5.13;100.00;99519.56;4993385;28;20041;-68
2021/10/19 02:25:56;;;;;;;23.65;11.43;;;;;;;5.12;100.00;99507.16;4992293;28;20022;-68
2021/10/19 02:28:21;;;;;;;19.65;10.55;;;;;;;5.18;100.00;99528.00;4993209;28;20034;-68
2021/10/19 02:30:47;;;;;;;17.65;9.40;;;;;;;5.09;100.00;99521.72;4993270;28;20034;-68
2021/10/19 02:33:12;;;;;;;18.65;10.02;;;;;;;5.13;100.00;99515.03;4990522;28;20018;-68
2021/10/19 02:35:38;;;;;;;21.05;10.32;;;;;;;5.10;100.00;99509.16;4974853;28;20130;-68
2021/10/19 02:38:03;;;;;;;19.90;10.25;;;;;;;5.03;100.00;99503.53;4988847;28;20034;-68
2021/10/19 02:40:28;;;;;;;16.58;9.77;;;;;;;5.31;100.00;99512.38;4992566;28;20065;-68
2021/10/19 02:42:54;;;;;;;19.55;11.18;;;;;;;5.43;100.00;99521.06;4991611;28;20022;-68
2021/10/19 02:45:19;;;;;;;22.35;11.00;;;;;;;5.35;100.00;99524.50;4992276;28;20025;-69
2021/10/19 02:47:45;;;;;;;18.33;10.63;;;;;;;5.55;100.00;99527.03;4984318;28;20524;-68
2021/10/19 02:50:12;;;;;;;19.42;10.93;;;;;;;5.52;100.00;99528.19;4993285;28;20030;-68
2021/10/19 02:52:37;;;;;;;16.98;9.85;;;;;;;5.35;100.00;99524.50;4993486;28;20037;-68
2021/10/19 02:55:05;;;;;;;18.02;9.90;;;;;;;5.51;100.00;99523.00;4993238;28;20069;-68
2021/10/19 02:57:30;;;;;;;18.10;9.63;;;;;;;5.60;100.00;99505.94;4987429;28;20034;-68
2021/10/19 02:59:56;;;;;;;17.83;9.57;;;;;;;5.56;100.00;99518.00;4991383;28;20092;-68
2021/10/19 03:02:22;;;;;;;18.52;9.52;;;;;;;5.58;100.00;99519.53;4993189;28;20026;-68
2021/10/19 03:04:47;;;;;;;19.33;10.35;;;;;;;5.45;100.00;99503.81;4992792;28;20484;-69
2021/10/19 03:07:12;;;;;;;19.42;9.85;;;;;;;5.26;100.00;99488.69;4991106;28;20461;-68
2021/10/19 03:09:38;;;;;;;16.73;9.38;;;;;;;5.44;100.00;99509.31;4992264;28;20041;-68
2021/10/19 03:12:03;;;;;;;17.63;9.35;;;;;;;5.44;100.00;99512.84;4991772;28;20036;-68
2021/10/19 03:14:29;;;;;;;16.30;8.95;;;;;;;5.41;100.00;99490.84;4992067;28;20088;-68
2021/10/19 03:16:54;;;;;;;16.48;8.90;;;;;;;5.48;100.00;99519.59;4978126;28;20035;-68
2021/10/19 03:19:19;;;;;;;16.88;9.63;;;;;;;5.45;100.00;99516.41;4979545;28;20053;-68
2021/10/19 03:21:45;;;;;;;23.08;10.18;;;;;;;5.45;100.00;99502.97;4974270;28;20102;-68
2021/10/19 03:24:10;;;;;;;18.17;10.60;;;;;;;5.52;100.00;99519.28;5000062;28;20540;-68
2021/10/19 03:26:35;;;;;;;18.50;9.80;;;;;;;5.63;100.00;99524.44;4992136;28;20499;-68
2021/10/19 03:29:00;;;;;;;18.00;9.40;;;;;;;5.64;100.00;99523.44;4992060;28;20030;-68
2021/10/19 03:31:26;;;;;;;17.77;9.88;;;;;;;5.39;100.00;99504.41;4992426;28;20065;-68
2021/10/19 03:33:51;;;;;;;16.90;9.35;;;;;;;5.51;100.00;99529.19;4982556;28;20034;-68
2021/10/19 03:36:16;;;;;;;17.75;9.43;;;;;;;5.49;100.00;99518.59;4985392;28;20512;-68
2021/10/19 03:38:42;;;;;;;17.45;9.45;;;;;;;5.60;100.00;99525.56;4991843;28;20038;-68
2021/10/19 03:41:07;;;;;;;19.92;10.38;;;;;;;5.58;100.00;99518.66;4988998;28;20411;-72
2021/10/19 03:43:33;;;;;;;16.58;9.75;;;;;;;5.59;100.00;99515.84;4986463;28;20022;-74
2021/10/19 03:45:59;;;;;;;20.98;10.57;;;;;;;5.59;100.00;99520.38;4993651;28;20019;-74
2021/10/19 03:48:24;;;;;;;15.80;9.30;;;;;;;5.52;100.00;99508.56;5002068;28;20099;-74
2021/10/19 03:50:50;;;;;;;19.98;9.80;;;;;;;5.46;100.00;99502.81;5005427;28;20037;-74
2021/10/19 03:53:15;;;;;;;19.58;10.13;;;;;;;5.65;100.00;99530.50;5002524;28;20026;-75
2021/10/19 03:55:40;;;;;;;19.33;10.02;;;;;;;5.73;100.00;99519.81;5000852;28;20034;-74
2021/10/19 03:58:06;;;;;;;19.80;9.90;;;;;;;5.67;100.00;99513.22;5022255;28;20525;-76
2021/10/19 04:00:31;;;;;;;19.02;9.25;;;;;;;5.76;100.00;99529.41;5002658;28;20034;-73
2021/10/19 04:02:56;;;;;;;17.15;9.02;;;;;;;5.82;100.00;99523.44;4995709;28;20495;-74
2021/10/19 04:05:22;;;;;;;15.75;9.20;;;;;;;5.88;100.00;99515.59;4995464;28;20479;-75
2021/10/19 04:07:47;;;;;;;15.85;8.88;;;;;;;5.94;100.00;99522.22;4994072;28;20026;-74
2021/10/19 04:10:15;;;;;;;16.77;9.18;;;;;;;6.03;100.00;99536.56;4994291;28;20463;-75
2021/10/19 04:12:41;;;;;;;17.75;9.68;;;;;;;6.01;100.00;99525.13;4980159;28;20543;-75
2021/10/19 04:15:07;;;;;;;16.67;9.45;;;;;;;6.07;100.00;99535.22;5001918;28;20025;-76
2021/10/19 04:17:32;;;;;;;17.90;9.82;;;;;;;6.12;100.00;99546.34;5008307;28;20021;-75
2021/10/19 04:19:58;;;;;;;17.02;9.18;;;;;;;6.16;100.00;99528.94;5004002;28;20053;-77
2021/10/19 04:22:23;;;;;;;16.60;9.68;;;;;;;6.28;100.00;99516.06;5001627;28;21120;-74
2021/10/19 04:24:51;;;;;;;15.73;9.25;;;;;;;6.37;100.00;99509.75;5003563;28;20018;-76
2021/10/19 04:27:17;;;;;;;19.45;10.13;;;;;;;6.33;100.00;99511.91;5000279;28;20100;-76
2021/10/19 04:29:42;;;;;;;18.85;9.40;;;;;;;6.17;100.00;99501.06;4995977;28;20436;-75
2021/10/19 04:32:07;;;;;;;17.35;10.18;;;;;;;6.17;100.00;99516.34;4997838;28;20034;-73
2021/10/19 04:34:33;;;;;;;17.80;9.95;;;;;;;6.11;100.00;99499.00;5010768;28;20166;-75
2021/10/19 04:36:58;;;;;;;16.20;8.55;;;;;;;6.23;100.00;99516.53;5006027;28;20018;-75
2021/10/19 04:39:23;;;;;;;20.80;9.50;;;;;;;6.18;100.00;99505.41;5004778;28;20540;-75
2021/10/19 04:41:49;;;;;;;18.95;9.38;;;;;;;6.20;100.00;99497.22;5002747;28;20034;-76
2021/10/19 04:44:14;;;;;;;16.80;9.68;;;;;;;6.36;100.00;99506.19;5001925;28;20022;-75
2021/10/19 04:46:40;;;;;;;19.67;9.32;;;;;;;6.34;100.00;99501.97;4996383;28;20418;-76
2021/10/19 04:49:06;;;;;;;14.70;9.20;;;;;;;6.46;100.00;99505.25;5008526;28;20022;-74
2021/10/19 04:51:31;;;;;;;18.13;9.52;;;;;;;6.36;100.00;99489.25;4995588;28;20096;-74
2021/10/19 04:53:57;;;;;;;16.65;9.45;;;;;;;6.53;100.00;99509.84;5003208;28;20022;-74
2021/10/19 04:56:22;;;;;;;16.48;9.50;;;;;;;6.57;100.00;99507.66;5003105;28;20086;-76
2021/10/19 04:58:47;;;;;;;15.80;9.70;;;;;;;6.54;100.00;99497.22;4994784;28;20031;-76
2021/10/19 05:01:13;;;;;;;14.25;8.82;;;;;;;6.43;100.00;99481.41;4997138;28;20593;-76
2021/10/19 05:03:42;;;;;;;16.30;9.13;;;;;;;6.48;100.00;99503.25;4993962;28;20033;-76
2021/10/19 05:06:07;;;;;;;15.02;8.43;;;;;;;6.59;100.00;99522.63;4982244;28;20030;-76
2021/10/19 05:08:32;;;;;;;12.68;8.23;;;;;;;6.58;100.00;99517.44;4986771;28;20036;-66
2021/10/19 05:10:58;;;;;;;14.48;8.65;;;;;;;6.66;100.00;99516.63;4991954;28;20468;-65
2021/10/19 05:13:23;;;;;;;14.25;8.93;;;;;;;6.59;100.00;99505.66;4981673;28;20033;-66
2021/10/19 05:15:48;;;;;;;15.38;8.63;;;;;;;6.71;100.00;99512.44;4995676;28;20029;-66
2021/10/19 05:18:14;;;;;;;15.93;9.27;;;;;;;6.63;100.00;99507.03;4994689;28;20053;-67
2021/10/19 05:20:39;;;;;;;16.70;9.10;;;;;;;6.67;100.00;99515.63;4994358;28;20184;-67
2021/10/19 05:23:04;;;;;;;13.38;7.97;;;;;;;6.72;100.00;99513.28;4991194;28;20125;-74
2021/10/19 05:25:30;;;;;;;15.45;9.13;;;;;;;6.74;100.00;99509.44;4992018;28;20033;-70
2021/10/19 05:27:56;;;;;;;17.02;8.70;;;;;;;6.82;100.00;99515.88;4996782;28;20034;-76
2021/10/19 05:30:21;;;;;;;15.38;8.80;;;;;;;6.88;100.00;99515.19;5004526;28;20022;-71
2021/10/19 05:32:47;;;;;;;18.40;9.80;;;;;;;6.95;100.00;99516.25;5011293;28;20443;-71
2021/10/19 05:35:12;;;;;;;17.17;9.50;;;;;;;7.05;100.00;99514.28;4992717;28;20387;-74
2021/10/19 05:37:37;;;;;;;16.90;9.13;;;;;;;7.13;100.00;99506.22;4999897;28;20032;-71
2021/10/19 05:40:04;;;;;;;13.15;7.65;;;;;;;7.19;100.00;99510.94;4996696;28;20112;-72
2021/10/19 05:42:29;;;;;;;14.02;8.02;;;;;;;7.22;100.00;99518.66;5006161;28;20395;-74
2021/10/19 05:44:55;;;;;;;16.92;9.05;;;;;;;7.17;100.00;99520.19;5002762;28;20034;-72
2021/10/19 05:47:20;;;;;;;14.52;9.10;;;;;;;7.18;100.00;99520.03;4987515;28;20026;-70
2021/10/19 05:49:45;;;;;;;14.13;9.18;;;;;;;7.13;100.00;99510.75;5003512;28;20034;-71
2021/10/19 05:52:10;;;;;;;20.45;9.50;;;;;;;7.23;100.00;99504.22;5003324;28;20115;-71
2021/10/19 05:54:36;;;;;;;17.35;9.27;;;;;;;7.55;100.00;99504.44;5000618;28;20026;-71
2021/10/19 05:57:01;;;;;;;21.27;10.13;;;;;;;7.40;100.00;99499.72;4988824;28;20022;-70
2021/10/19 05:59:26;;;;;;;15.73;9.75;;;;;;;7.48;100.00;99515.03;4993645;28;20038;-68
2021/10/19 06:01:52;;;;;;;16.20;9.05;;;;;;;7.32;100.00;99488.09;4993885;28;20061;-68
2021/10/19 06:04:17;;;;;;;17.48;9.20;;;;;;;7.49;100.00;99524.78;4993466;28;20022;-69
2021/10/19 06:06:58;;;;;;;14.50;8.77;;;;;;;7.51;100.00;99528.16;4993513;28;20149;-69
2021/10/19 06:09:24;;;;;;;15.27;9.13;;;;;;;7.60;100.00;99529.03;4992798;28;20022;-73
2021/10/19 06:11:50;;;;;;;16.80;9.32;;;;;;;7.60;100.00;99523.66;4999267;28;20036;-72
2021/10/19 06:14:16;;;;;;;14.25;9.07;;;;;;;7.71;100.00;99531.38;4990227;28;20018;-69
2021/10/19 06:16:42;;;;;;;17.30;9.63;;;;;;;7.65;100.00;99518.56;4990129;28;20430;-70
2021/10/19 06:19:08;;;;;;;15.18;8.52;;;;;;;7.71;100.00;99528.69;4992981;28;20100;-69
2021/10/19 06:21:33;;;;;;;17.00;9.40;;;;;;;7.86;100.00;99518.09;4993963;28;20117;-69
2021/10/19 06:23:59;;;;;;;14.60;8.82;;;;;;;7.77;100.00;99521.78;4987746;28;20550;-69
2021/10/19 06:26:24;;;;;;;17.02;9.30;;;;;;;7.85;100.00;99519.94;4978841;28;20062;-71
2021/10/19 06:28:49;;;;;;;14.13;8.75;;;;;;;8.00;100.00;99512.03;4994955;28;20483;-70
2021/10/19 06:31:14;;;;;;;16.02;9.32;;;;;;;7.98;100.00;99522.13;4993947;28;20026;-70
2021/10/19 06:33:40;;;;;;;16.20;9.07;;;;;;;8.00;100.00;99528.19;5000522;28;20037;-70
2021/10/19 06:36:05;;;;;;;21.50;9.32;;;;;;;7.99;100.00;99523.84;4988484;28;20049;-71
2021/10/19 06:38:31;;;;;;;14.90;7.90;;;;;;;8.01;100.00;99520.94;5029609;28;20030;-70
2021/10/19 06:40:56;;;;;;;15.68;8.57;;;;;;;8.15;100.00;99530.19;5033276;28;20037;-66
2021/10/19 06:43:21;;;;;;;15.18;8.80;;;;;;;8.15;100.00;99533.75;5013577;28;20018;-66
2021/10/19 06:45:47;;;;;;;15.45;8.40;;;;;;;8.12;100.00;99523.28;5009683;28;20024;-75
2021/10/19 06:48:12;;;;;;;14.98;8.82;;;;;;;8.20;100.00;99539.47;5014192;28;20038;-75
2021/10/19 06:50:37;;;;;;;12.63;8.63;;;;;;;8.39;100.00;99532.91;5008426;28;20094;-69
2021/10/19 06:53:03;;;;;;;11.82;7.10;;;;;;;8.49;100.00;99527.34;5010445;28;20057;-69
2021/10/19 06:55:28;;;;;;;13.50;7.78;;;;;;;8.42;99.78;99511.00;5005798;28;20023;-71
2021/10/19 06:57:55;;;;;;;13.93;7.43;;;;;;;8.54;100.00;99528.50;5011960;28;20019;-72
2021/10/19 07:00:20;;;;;;;15.50;7.95;;;;;;;8.51;100.00;99501.88;5011842;28;20078;-71
2021/10/19 07:02:46;;;;;;;12.73;7.72;;;;;;;8.62;100.00;99524.06;5011538;28;20050;-72
2021/10/19 07:05:11;;;;;;;13.68;8.40;;;;;;;8.83;100.00;99543.25;5006999;28;20054;-71
2021/10/19 07:07:39;;;;;;;14.90;7.95;;;;;;;8.80;100.00;99540.88;5009960;28;20038;-70
2021/10/19 07:10:05;;;;;;;12.70;8.20;;;;;;;8.73;100.00;99548.00;5009285;28;20030;-68
2021/10/19 07:12:30;;;;;;;16.77;8.07;;;;;;;8.75;100.00;99545.94;5009905;28;20036;-67
2021/10/19 07:14:55;;;;;;;12.50;7.40;;;;;;;8.80;100.00;99558.94;5010974;28;20030;-66
2021/10/19 07:17:21;;;;;;;12.90;7.47;;;;;;;8.81;100.00;99549.84;5000126;28;20046;-66
2021/10/19 07:19:47;;;;;;;9.85;6.65;;;;;;;8.85;100.00;99554.69;4992965;28;20026;-66
2021/10/19 07:22:13;;;;;;;12.18;6.97;;;;;;;8.95;100.00;99552.63;4992077;28;21773;-72
2021/10/19 07:24:38;;;;;;;10.10;6.13;;;;;;;9.06;100.00;99547.88;4990332;28;20018;-66
2021/10/19 07:27:03;;;;;;;11.88;7.10;;;;;;;9.19;100.00;99569.75;4993544;28;20531;-66
2021/10/19 07:29:29;;;;;;;14.10;7.53;;;;;;;9.21;100.00;99583.91;4992841;28;20041;-72
2021/10/19 07:31:54;;;;;;;11.63;7.18;;;;;;;9.23;100.00;99571.09;5000633;28;20049;-72
2021/10/19 07:34:19;;;;;;;15.77;7.25;;;;;;;9.15;100.00;99580.06;4992495;28;20054;-67
2021/10/19 07:36:45;;;;;;;12.63;7.18;;;;;;;9.10;100.00;99578.91;4993120;28;20041;-67
2021/10/19 07:39:11;;;;;;;12.00;7.90;;;;;;;9.14;100.00;99593.72;4992370;28;20053;-67
2021/10/19 07:41:36;;;;;;;10.43;7.13;;;;;;;9.24;100.00;99593.53;4993110;28;20431;-67
2021/10/19 07:44:03;;;;;;;10.95;6.63;;;;;;;9.28;100.00;99594.88;4992206;28;20037;-73
2021/10/19 07:46:28;;;;;;;9.52;6.22;;;;;;;9.35;100.00;99595.81;4999023;28;20034;-72
2021/10/19 07:48:54;;;;;;;13.63;6.85;;;;;;;9.67;99.17;99584.03;5005102;28;20101;-72
2021/10/19 07:51:19;;;;;;;12.25;7.55;;;;;;;9.72;98.86;99595.13;5012825;28;20032;-72
2021/10/19 07:53:44;;;;;;;15.95;9.00;;;;;;;9.55;100.00;99612.44;4995595;28;20395;-72
2021/10/19 07:56:10;;;;;;;16.55;9.90;;;;;;;9.61;99.44;99606.34;4994045;28;20075;-71
2021/10/19 07:58:35;;;;;;;24.10;11.80;;;;;;;9.66;99.23;99606.66;5002099;28;20033;-68
2021/10/19 08:01:00;;;;;;;19.80;10.45;;;;;;;9.68;98.43;99596.50;4996857;28;20037;-71
2021/10/19 08:03:26;;;;;;;24.80;11.38;;;;;;;9.80;98.78;99584.28;4992278;28;20109;-72
2021/10/19 08:05:51;;;;;;;29.42;14.35;;;;;;;9.94;97.62;99587.22;4989673;28;20026;-68
2021/10/19 08:08:17;;;;;;;22.35;12.75;;;;;;;10.01;97.76;99597.13;4992385;28;20046;-76
2021/10/19 08:10:44;;;;;;;14.80;9.93;;;;;;;9.82;98.54;99590.34;4982344;28;20483;-76
2021/10/19 08:13:10;;;;;;;12.77;8.70;;;;;;;9.92;98.75;99581.97;4997273;28;20435;-77
2021/10/19 08:15:37;;;;;;;15.30;8.82;;;;;;;9.86;99.12;99594.34;4991452;28;20015;-78
2021/10/19 08:18:03;;;;;;;11.45;7.50;;;;;;;9.66;99.72;99560.72;4992529;28;20396;-75
2021/10/19 08:20:28;;;;;;;13.98;8.13;;;;;;;9.71;100.00;99566.41;4998187;28;20079;-76
2021/10/19 08:22:54;;;;;;;17.92;8.63;;;;;;;9.82;100.00;99576.84;5004224;28;20097;-68
2021/10/19 08:25:19;;;;;;;15.27;9.23;;;;;;;9.79;100.00;99566.34;4997833;28;20034;-68
2021/10/19 08:27:46;;;;;;;15.80;9.30;;;;;;;9.90;100.00;99565.09;4992046;28;20049;-68
2021/10/19 08:30:14;;;;;;;14.38;8.40;;;;;;;9.85;100.00;99565.66;4991059;28;20486;-68
2021/10/19 08:32:40;;;;;;;12.10;7.70;;;;;;;10.00;100.00;99559.47;4987374;28;20096;-69
2021/10/19 08:35:06;;;;;;;14.90;7.13;;;;;;;9.97;100.00;99547.16;4994780;28;20483;-68
2021/10/19 08:37:32;;;;;;;10.05;7.45;;;;;;;10.12;100.00;99546.38;4995933;28;20384;-68
2021/10/19 08:39:59;;;;;;;12.57;7.57;;;;;;;10.24;100.00;99542.19;4994890;28;20027;-68
2021/10/19 08:42:25;;;;;;;10.57;6.80;;;;;;;10.25;100.00;99547.41;4995749;28;20447;-68
2021/10/19 08:44:50;;;;;;;11.10;6.40;;;;;;;10.24;100.00;99551.16;4995060;28;20034;-68
2021/10/19 08:47:16;;;;;;;11.63;6.22;;;;;;;10.26;100.00;99545.56;4994604;28;20030;-68
2021/10/19 08:49:41;;;;;;;9.73;6.35;;;;;;;10.37;100.00;99536.19;4990030;28;20030;-68
2021/10/19 08:52:07;;;;;;;11.95;6.55;;;;;;;10.44;100.00;99553.38;4991100;28;20347;-68
2021/10/19 08:54:32;;;;;;;11.13;6.72;;;;;;;10.58;100.00;99557.09;4991904;28;20037;-68
2021/10/19 08:56:58;;;;;;;10.52;6.88;;;;;;;10.63;100.00;99557.41;4990568;28;20041;-68
2021/10/19 08:59:24;;;;;;;9.27;5.32;;;;;;;10.73;99.60;99558.81;4990841;28;20030;-68
2021/10/19 09:01:54;;;;;;;9.70;5.03;;;;;;;10.89;99.18;99559.66;5007793;28;20145;-68
2021/10/19 09:04:20;;;;;;;14.02;5.07;;;;;;;10.97;98.48;99554.97;4992890;28;20030;-68
2021/10/19 09:06:45;;;;;;;9.15;5.38;;;;;;;10.90;99.77;99555.94;4993124;28;20069;-68
2021/10/19 09:09:24;;;;;;;10.60;5.72;;;;;;;10.99;99.79;99551.25;4985977;28;20030;-68
2021/10/19 09:11:50;;;;;;;7.65;5.07;;;;;;;11.14;98.75;99557.50;4992899;28;20110;-68
2021/10/19 09:14:19;;;;;;;8.55;5.60;;;;;;;11.17;98.75;99571.50;4992972;28;20022;-68
2021/10/19 09:16:48;;;;;;;;;;;;;;;11.33;97.20;99567.72;4992630;28;20038;-68
2021/10/19 09:19:19;;;;;;;7.28;4.53;;;;;;;11.41;98.89;99570.34;4991134;28;19921;-68
2021/10/19 09:21:51;;;;;;;10.23;5.13;;;;;;;11.52;98.71;99565.44;4990585;28;20045;-68
2021/10/19 09:24:25;;;;;;;7.90;4.97;;;;;;;11.77;96.27;99572.22;4990796;28;20036;-68
2021/10/19 09:27:04;;;;;;;8.77;5.00;;;;;;;11.90;92.03;99578.84;4989391;28;20044;-68
2021/10/19 09:29:33;;;;;;;7.22;4.30;;;;;;;11.95;89.62;99576.41;4987871;28;20092;-68
2021/10/19 09:32:00;;;;;;;8.10;4.40;;;;;;;12.12;88.98;99575.09;4993658;28;20049;-68
2021/10/19 09:34:29;;;;;;;7.20;4.30;;;;;;;12.15;89.45;99577.41;4991570;28;20036;-68
2021/10/19 09:36:54;;;;;;;10.15;4.53;;;;;;;12.37;87.80;99570.09;4990312;28;20575;-68
2021/10/19 09:39:37;;;;;;;11.13;5.28;;;;;;;12.40;86.15;99563.44;4982892;28;20117;-68
2021/10/19 09:42:07;;;;;;;9.18;5.40;;;;;;;12.52;85.37;99550.97;4991006;28;20037;-68
2021/10/19 09:44:33;;;;;;;8.70;5.65;;;;;;;12.62;84.18;99556.06;4991063;28;20034;-68
2021/10/19 09:47:00;;;;;;;7.82;5.20;;;;;;;12.66;83.31;99549.22;4992682;28;20034;-68
2021/10/19 09:49:27;;;;;;;8.77;3.92;;;;;;;12.54;84.05;99542.66;4992079;28;20037;-68
2021/10/19 09:51:55;;;;;;;8.25;4.10;;;;;;;12.46;84.14;99536.34;4990957;28;20034;-68
2021/10/19 09:54:21;;;;;;;9.93;4.53;;;;;;;12.65;83.10;99548.41;4990874;28;20018;-68
2021/10/19 09:56:47;;;;;;;9.13;5.80;;;;;;;12.82;83.32;99543.47;4991438;28;20053;-68
2021/10/19 09:59:15;;;;;;;7.28;4.50;;;;;;;12.81;83.42;99546.38;4980609;28;20038;-68
2021/10/19 10:01:40;;;;;;;7.25;3.50;;;;;;;12.84;83.02;99535.97;4991574;28;20124;-68
2021/10/19 10:04:07;;;;;;;7.88;4.13;;;;;;;12.90;82.92;99547.91;4991482;28;20438;-68
2021/10/19 10:06:33;;;;;;;6.85;3.90;;;;;;;13.01;82.88;99551.94;4991772;28;20093;-68
2021/10/19 10:08:59;;;;;;;7.65;4.05;;;;;;;12.97;83.88;99545.22;4990809;28;20057;-68
2021/10/19 10:11:25;;;;;;;7.57;3.90;;;;;;;13.24;82.23;99546.19;4986561;28;20060;-68
2021/10/19 10:14:00;;;;;;;6.55;3.65;;;;;;;13.19;82.23;99544.09;4991157;28;20057;-68
2021/10/19 10:16:26;;;;;;;11.68;4.22;;;;;;;13.22;82.38;99534.69;4983757;28;20073;-68
2021/10/19 10:18:53;;;;;;;6.55;3.83;;;;;;;13.30;82.45;99534.53;4985419;28;20029;-68
2021/10/19 10:21:22;;;;;;;7.22;4.00;;;;;;;13.28;82.27;99521.19;4983759;28;20042;-68
2021/10/19 10:24:00;;;;;;;9.35;4.78;;;;;;;13.51;82.28;99533.56;4990688;28;20058;-68
2021/10/19 10:26:27;;;;;;;6.07;4.00;;;;;;;13.53;82.47;99524.16;4990258;28;20034;-68
2021/10/19 10:28:52;;;;;;;9.95;3.47;;;;;;;13.59;82.10;99526.06;4989315;28;20061;-68
2021/10/19 10:31:23;;;;;;;8.60;3.13;;;;;;;13.62;81.31;99516.66;4990264;28;20026;-68
2021/10/19 10:34:00;;;;;;;7.28;3.15;;;;;;;13.60;82.03;99513.31;4989415;28;20030;-68
2021/10/19 10:36:37;;;;;;;8.25;3.55;;;;;;;13.75;81.80;99514.00;4971629;28;20093;-68
2021/10/19 10:39:04;;;;;;;9.35;2.90;;;;;;;13.75;82.40;99519.44;4988979;28;20022;-68
2021/10/19 10:41:44;;;;;;;7.30;3.08;;;;;;;13.78;81.89;99507.25;4987600;28;20031;-68
2021/10/19 10:44:11;;;;;;;6.95;2.70;;;;;;;13.86;81.66;99512.53;5003249;28;20026;-68
2021/10/19 10:46:37;;;;;;;6.18;3.22;;;;;;;13.91;81.48;99490.13;4990351;28;20023;-68
2021/10/19 10:49:03;;;;;;;5.85;3.13;;;;;;;13.99;81.40;99501.66;4984283;28;20035;-68
2021/10/19 10:51:36;;;;;;;4.57;2.67;;;;;;;14.09;81.27;99484.91;4984537;28;20786;-68
2021/10/19 10:54:01;;;;;;;4.97;2.33;;;;;;;14.10;80.70;99508.38;4987435;28;20080;-68
2021/10/19 10:56:27;;;;;;;4.95;2.75;;;;;;;14.29;79.97;99475.91;4987627;28;20038;-68
2021/10/19 10:58:53;;;;;;;6.38;2.90;;;;;;;14.11;81.11;99482.81;4982717;28;20173;-68
2021/10/19 11:01:31;;;;;;;4.20;2.50;;;;;;;14.45;80.79;99472.75;4989154;28;20038;-68
2021/10/19 11:04:07;;;;;;;3.50;2.42;;;;;;;14.76;78.59;99466.63;4990920;28;20041;-68
2021/10/19 11:06:35;;;;;;;5.15;2.50;;;;;;;14.91;78.06;99466.38;4990041;28;20034;-68
2021/10/19 11:09:12;;;;;;;3.08;1.95;;;;;;;14.68;77.83;99489.47;4984315;28;20015;-68
2021/10/19 11:11:40;;;;;;;3.85;2.50;;;;;;;14.73;78.93;99474.41;4989253;28;20037;-68
2021/10/19 11:14:08;;;;;;;6.50;2.35;;;;;;;14.66;78.77;99474.41;4990695;28;20061;-68
2021/10/19 11:16:35;;;;;;;5.30;2.20;;;;;;;14.60;78.98;99484.25;4989116;28;20026;-68
2021/10/19 11:19:04;;;;;;;4.07;2.22;;;;;;;14.79;77.43;99477.09;4982497;28;20772;-68